sensor_id;sensor_type;location;lat;lon;timestamp;temperature;humidity
5578;DHT22;2811;51.900;10.734;2022-09-28T00:02:22;10.20;99.90
5578;DHT22;2811;51.900;10.734;2022-09-28T00:04:51;10.30;99.90
5578;DHT22;2811;51.900;10.734;2022-09-28T00:07:18;10.30;99.90
5578;DHT22;2811;51.900;10.734;2022-09-28T00:09:44;10.30;99.90
5578;DHT22;2811;51.900;10.734;2022-09-28T00:12:11;10.20;99.90
5578;DHT22;2811;51.900;10.734;2022-09-28T00:14:38;10.20;99.90
5578;DHT22;2811;51.900;10.734;2022-09-28T00:17:07;10.30;99.90
5578;DHT22;2811;51.900;10.734;2022-09-28T00:19:34;10.30;99.90
5578;DHT22;2811;51.900;10.734;2022-09-28T00:22:02;10.30;99.90
5578;DHT22;2811;51.900;10.734;2022-09-28T00:24:28;10.30;99.90
5578;DHT22;2811;51.900;10.734;2022-09-28T00:26:58;10.20;99.90
5578;DHT22;2811;51.900;10.734;2022-09-28T00:29:28;10.30;99.90
5578;DHT22;2811;51.900;10.734;2022-09-28T00:31:57;10.20;99.90
5578;DHT22;2811;51.900;10.734;2022-09-28T00:34:27;10.10;99.90
5578;DHT22;2811;51.900;10.734;2022-09-28T00:36:55;10.00;99.90
5578;DHT22;2811;51.900;10.734;2022-09-28T00:39:24;10.00;99.90
5578;DHT22;2811;51.900;10.734;2022-09-28T00:41:52;10.20;99.90
5578;DHT22;2811;51.900;10.734;2022-09-28T00:44:33;9.80;99.90
5578;DHT22;2811;51.900;10.734;2022-09-28T00:47:06;9.70;99.90
5578;DHT22;2811;51.900;10.734;2022-09-28T00:49:38;9.60;99.90
5578;DHT22;2811;51.900;10.734;2022-09-28T00:52:07;9.60;99.90
5578;DHT22;2811;51.900;10.734;2022-09-28T00:54:40;9.50;99.90
5578;DHT22;2811;51.900;10.734;2022-09-28T00:57:08;9.60;99.90
5578;DHT22;2811;51.900;10.734;2022-09-28T00:59:38;9.50;99.90
5578;DHT22;2811;51.900;10.734;2022-09-28T01:02:06;9.50;99.90
5578;DHT22;2811;51.900;10.734;2022-09-28T01:04:35;9.40;99.90
5578;DHT22;2811;51.900;10.734;2022-09-28T01:07:02;9.40;99.90
5578;DHT22;2811;51.900;10.734;2022-09-28T01:09:29;9.40;99.90
5578;DHT22;2811;51.900;10.734;2022-09-28T01:11:57;9.30;99.90
5578;DHT22;2811;51.900;10.734;2022-09-28T01:14:24;9.10;99.90
5578;DHT22;2811;51.900;10.734;2022-09-28T01:16:57;9.10;99.90
5578;DHT22;2811;51.900;10.734;2022-09-28T01:19:42;9.00;99.90
5578;DHT22;2811;51.900;10.734;2022-09-28T01:22:25;9.00;99.90
5578;DHT22;2811;51.900;10.734;2022-09-28T01:24:57;9.10;99.90
5578;DHT22;2811;51.900;10.734;2022-09-28T01:27:28;9.10;99.90
5578;DHT22;2811;51.900;10.734;2022-09-28T01:30:03;9.10;99.90
5578;DHT22;2811;51.900;10.734;2022-09-28T01:32:37;9.00;99.90
5578;DHT22;2811;51.900;10.734;2022-09-28T01:35:12;9.00;99.90
5578;DHT22;2811;51.900;10.734;2022-09-28T01:37:45;9.10;99.90
5578;DHT22;2811;51.900;10.734;2022-09-28T01:40:13;9.10;99.90
5578;DHT22;2811;51.900;10.734;2022-09-28T01:42:44;9.00;99.90
5578;DHT22;2811;51.900;10.734;2022-09-28T01:45:15;9.10;99.90
5578;DHT22;2811;51.900;10.734;2022-09-28T01:47:44;9.20;99.90
5578;DHT22;2811;51.900;10.734;2022-09-28T01:50:14;9.20;99.90
5578;DHT22;2811;51.900;10.734;2022-09-28T01:52:46;9.20;99.90
5578;DHT22;2811;51.900;10.734;2022-09-28T01:55:19;9.20;99.90
5578;DHT22;2811;51.900;10.734;2022-09-28T01:57:54;9.10;99.90
5578;DHT22;2811;51.900;10.734;2022-09-28T02:00:23;8.90;99.90
5578;DHT22;2811;51.900;10.734;2022-09-28T02:02:54;8.80;99.90
5578;DHT22;2811;51.900;10.734;2022-09-28T02:05:25;8.90;99.90
5578;DHT22;2811;51.900;10.734;2022-09-28T02:07:58;8.90;99.90
5578;DHT22;2811;51.900;10.734;2022-09-28T02:10:31;9.00;99.90
5578;DHT22;2811;51.900;10.734;2022-09-28T02:13:02;9.20;99.90
5578;DHT22;2811;51.900;10.734;2022-09-28T02:15:34;9.30;99.90
5578;DHT22;2811;51.900;10.734;2022-09-28T02:18:03;9.40;99.90
5578;DHT22;2811;51.900;10.734;2022-09-28T02:20:31;9.40;99.90
5578;DHT22;2811;51.900;10.734;2022-09-28T02:23:01;9.30;99.90
5578;DHT22;2811;51.900;10.734;2022-09-28T02:25:33;9.20;99.90
5578;DHT22;2811;51.900;10.734;2022-09-28T02:28:03;9.00;99.90
5578;DHT22;2811;51.900;10.734;2022-09-28T02:30:31;8.90;99.90
5578;DHT22;2811;51.900;10.734;2022-09-28T02:33:02;9.00;99.90
5578;DHT22;2811;51.900;10.734;2022-09-28T02:35:30;9.10;99.90
5578;DHT22;2811;51.900;10.734;2022-09-28T02:37:59;9.10;99.90
5578;DHT22;2811;51.900;10.734;2022-09-28T02:40:29;9.00;99.90
5578;DHT22;2811;51.900;10.734;2022-09-28T02:43:08;9.10;99.90
5578;DHT22;2811;51.900;10.734;2022-09-28T02:45:45;9.20;99.90
5578;DHT22;2811;51.900;10.734;2022-09-28T02:48:23;9.20;99.90
5578;DHT22;2811;51.900;10.734;2022-09-28T02:50:59;9.20;99.90
5578;DHT22;2811;51.900;10.734;2022-09-28T02:56:54;9.20;99.90
5578;DHT22;2811;51.900;10.734;2022-09-28T02:59:39;9.30;99.90
5578;DHT22;2811;51.900;10.734;2022-09-28T03:02:17;9.40;99.90
5578;DHT22;2811;51.900;10.734;2022-09-28T03:04:55;9.50;99.90
5578;DHT22;2811;51.900;10.734;2022-09-28T03:07:29;9.30;99.90
5578;DHT22;2811;51.900;10.734;2022-09-28T03:10:02;9.40;99.90
5578;DHT22;2811;51.900;10.734;2022-09-28T03:12:31;9.30;99.90
5578;DHT22;2811;51.900;10.734;2022-09-28T03:15:10;9.30;99.90
5578;DHT22;2811;51.900;10.734;2022-09-28T03:17:38;9.30;99.90
5578;DHT22;2811;51.900;10.734;2022-09-28T03:20:05;9.30;99.90
5578;DHT22;2811;51.900;10.734;2022-09-28T03:22:32;9.40;99.90
5578;DHT22;2811;51.900;10.734;2022-09-28T03:24:59;9.40;99.90
5578;DHT22;2811;51.900;10.734;2022-09-28T03:27:26;9.50;99.90
5578;DHT22;2811;51.900;10.734;2022-09-28T03:29:52;9.50;99.90
5578;DHT22;2811;51.900;10.734;2022-09-28T03:32:20;9.50;99.90
5578;DHT22;2811;51.900;10.734;2022-09-28T03:34:47;9.50;99.90
5578;DHT22;2811;51.900;10.734;2022-09-28T03:37:14;9.50;99.90
5578;DHT22;2811;51.900;10.734;2022-09-28T03:39:40;9.50;99.90
5578;DHT22;2811;51.900;10.734;2022-09-28T03:42:07;9.50;99.90
5578;DHT22;2811;51.900;10.734;2022-09-28T03:44:34;9.70;99.90
5578;DHT22;2811;51.900;10.734;2022-09-28T03:47:00;9.60;99.90
5578;DHT22;2811;51.900;10.734;2022-09-28T03:49:28;9.60;99.90
5578;DHT22;2811;51.900;10.734;2022-09-28T03:51:55;9.70;99.90
5578;DHT22;2811;51.900;10.734;2022-09-28T03:54:22;9.70;99.90
5578;DHT22;2811;51.900;10.734;2022-09-28T03:56:48;9.70;99.90
5578;DHT22;2811;51.900;10.734;2022-09-28T03:59:16;9.70;99.90
5578;DHT22;2811;51.900;10.734;2022-09-28T04:01:43;9.70;99.90
5578;DHT22;2811;51.900;10.734;2022-09-28T04:04:10;9.70;99.90
5578;DHT22;2811;51.900;10.734;2022-09-28T04:06:39;9.80;99.90
5578;DHT22;2811;51.900;10.734;2022-09-28T04:09:05;9.60;99.90
5578;DHT22;2811;51.900;10.734;2022-09-28T04:11:32;9.50;99.90
5578;DHT22;2811;51.900;10.734;2022-09-28T04:13:59;9.50;99.90
5578;DHT22;2811;51.900;10.734;2022-09-28T04:16:26;9.50;99.90
5578;DHT22;2811;51.900;10.734;2022-09-28T04:18:53;9.40;99.90
5578;DHT22;2811;51.900;10.734;2022-09-28T04:21:20;9.30;99.90
5578;DHT22;2811;51.900;10.734;2022-09-28T04:23:47;9.30;99.90
5578;DHT22;2811;51.900;10.734;2022-09-28T04:26:16;9.30;99.90
5578;DHT22;2811;51.900;10.734;2022-09-28T04:28:43;9.30;99.90
5578;DHT22;2811;51.900;10.734;2022-09-28T04:31:27;9.40;99.90
5578;DHT22;2811;51.900;10.734;2022-09-28T04:33:55;9.30;99.90
5578;DHT22;2811;51.900;10.734;2022-09-28T04:36:22;9.30;99.90
5578;DHT22;2811;51.900;10.734;2022-09-28T04:38:51;9.40;99.90
5578;DHT22;2811;51.900;10.734;2022-09-28T04:41:19;9.30;99.90
5578;DHT22;2811;51.900;10.734;2022-09-28T04:43:47;9.40;99.90
5578;DHT22;2811;51.900;10.734;2022-09-28T04:46:13;9.40;99.90
5578;DHT22;2811;51.900;10.734;2022-09-28T04:48:40;9.40;99.90
5578;DHT22;2811;51.900;10.734;2022-09-28T04:51:07;9.40;99.90
5578;DHT22;2811;51.900;10.734;2022-09-28T04:53:33;9.30;99.90
5578;DHT22;2811;51.900;10.734;2022-09-28T04:56:03;9.20;99.90
5578;DHT22;2811;51.900;10.734;2022-09-28T04:58:30;9.10;99.90
5578;DHT22;2811;51.900;10.734;2022-09-28T05:00:59;9.00;99.90
5578;DHT22;2811;51.900;10.734;2022-09-28T05:03:26;9.00;99.90
5578;DHT22;2811;51.900;10.734;2022-09-28T05:05:56;8.90;99.90
5578;DHT22;2811;51.900;10.734;2022-09-28T05:08:23;8.90;99.90
5578;DHT22;2811;51.900;10.734;2022-09-28T05:10:56;8.90;99.90
5578;DHT22;2811;51.900;10.734;2022-09-28T05:13:25;8.90;99.90
5578;DHT22;2811;51.900;10.734;2022-09-28T05:15:53;9.00;99.90
5578;DHT22;2811;51.900;10.734;2022-09-28T05:18:20;9.00;99.90
5578;DHT22;2811;51.900;10.734;2022-09-28T05:20:47;9.00;99.90
5578;DHT22;2811;51.900;10.734;2022-09-28T05:23:14;9.10;99.90
5578;DHT22;2811;51.900;10.734;2022-09-28T05:25:41;9.20;99.90
5578;DHT22;2811;51.900;10.734;2022-09-28T05:28:08;9.10;99.90
5578;DHT22;2811;51.900;10.734;2022-09-28T05:30:36;9.20;99.90
5578;DHT22;2811;51.900;10.734;2022-09-28T05:33:03;9.20;99.90
5578;DHT22;2811;51.900;10.734;2022-09-28T05:35:30;9.20;99.90
5578;DHT22;2811;51.900;10.734;2022-09-28T05:38:01;9.10;99.90
5578;DHT22;2811;51.900;10.734;2022-09-28T05:40:28;9.10;99.90
5578;DHT22;2811;51.900;10.734;2022-09-28T05:42:58;9.10;99.90
5578;DHT22;2811;51.900;10.734;2022-09-28T05:45:25;9.10;99.90
5578;DHT22;2811;51.900;10.734;2022-09-28T05:47:53;9.00;99.90
5578;DHT22;2811;51.900;10.734;2022-09-28T05:50:21;9.00;99.90
5578;DHT22;2811;51.900;10.734;2022-09-28T05:52:56;9.10;99.90
5578;DHT22;2811;51.900;10.734;2022-09-28T05:55:23;9.00;99.90
5578;DHT22;2811;51.900;10.734;2022-09-28T05:57:50;9.00;99.90
5578;DHT22;2811;51.900;10.734;2022-09-28T06:00:17;9.00;99.90
5578;DHT22;2811;51.900;10.734;2022-09-28T06:02:51;9.10;99.90
5578;DHT22;2811;51.900;10.734;2022-09-28T06:05:22;9.00;99.90
5578;DHT22;2811;51.900;10.734;2022-09-28T06:07:48;9.30;99.90
5578;DHT22;2811;51.900;10.734;2022-09-28T06:10:15;8.90;99.90
5578;DHT22;2811;51.900;10.734;2022-09-28T06:12:42;9.00;99.90
5578;DHT22;2811;51.900;10.734;2022-09-28T06:15:09;9.00;99.90
5578;DHT22;2811;51.900;10.734;2022-09-28T06:17:36;8.90;99.90
5578;DHT22;2811;51.900;10.734;2022-09-28T06:20:03;9.00;99.90
5578;DHT22;2811;51.900;10.734;2022-09-28T06:22:31;9.00;99.90
5578;DHT22;2811;51.900;10.734;2022-09-28T06:24:58;9.10;99.90
5578;DHT22;2811;51.900;10.734;2022-09-28T06:27:25;9.00;99.90
5578;DHT22;2811;51.900;10.734;2022-09-28T06:29:51;9.00;99.90
5578;DHT22;2811;51.900;10.734;2022-09-28T06:32:18;9.00;99.90
5578;DHT22;2811;51.900;10.734;2022-09-28T06:34:45;9.00;99.90
5578;DHT22;2811;51.900;10.734;2022-09-28T06:37:11;8.90;99.90
5578;DHT22;2811;51.900;10.734;2022-09-28T06:39:39;8.90;99.90
5578;DHT22;2811;51.900;10.734;2022-09-28T06:42:06;8.90;99.90
5578;DHT22;2811;51.900;10.734;2022-09-28T06:44:33;8.90;99.90
5578;DHT22;2811;51.900;10.734;2022-09-28T06:47:00;9.00;99.90
5578;DHT22;2811;51.900;10.734;2022-09-28T06:49:27;9.10;99.90
5578;DHT22;2811;51.900;10.734;2022-09-28T06:51:54;9.00;99.90
5578;DHT22;2811;51.900;10.734;2022-09-28T06:54:21;9.00;99.90
5578;DHT22;2811;51.900;10.734;2022-09-28T06:56:52;9.00;99.90
5578;DHT22;2811;51.900;10.734;2022-09-28T06:59:18;9.00;99.90
5578;DHT22;2811;51.900;10.734;2022-09-28T07:01:45;8.90;99.90
5578;DHT22;2811;51.900;10.734;2022-09-28T07:04:12;8.90;99.90
5578;DHT22;2811;51.900;10.734;2022-09-28T07:06:39;9.00;99.90
5578;DHT22;2811;51.900;10.734;2022-09-28T07:09:05;9.00;99.90
5578;DHT22;2811;51.900;10.734;2022-09-28T07:11:36;9.10;99.90
5578;DHT22;2811;51.900;10.734;2022-09-28T07:14:06;9.10;99.90
5578;DHT22;2811;51.900;10.734;2022-09-28T07:16:34;9.20;99.90
5578;DHT22;2811;51.900;10.734;2022-09-28T07:19:01;9.20;99.90
5578;DHT22;2811;51.900;10.734;2022-09-28T07:21:27;9.40;99.90
5578;DHT22;2811;51.900;10.734;2022-09-28T07:23:54;9.40;99.90
5578;DHT22;2811;51.900;10.734;2022-09-28T07:26:21;9.40;99.90
5578;DHT22;2811;51.900;10.734;2022-09-28T07:28:48;9.40;99.90
5578;DHT22;2811;51.900;10.734;2022-09-28T07:31:16;9.40;99.90
5578;DHT22;2811;51.900;10.734;2022-09-28T07:33:42;9.40;99.90
5578;DHT22;2811;51.900;10.734;2022-09-28T07:36:10;9.30;99.90
5578;DHT22;2811;51.900;10.734;2022-09-28T07:38:38;9.20;99.90
5578;DHT22;2811;51.900;10.734;2022-09-28T07:41:05;9.30;99.90
5578;DHT22;2811;51.900;10.734;2022-09-28T07:43:38;9.40;99.90
5578;DHT22;2811;51.900;10.734;2022-09-28T07:46:06;9.50;99.90
5578;DHT22;2811;51.900;10.734;2022-09-28T07:48:38;9.50;99.90
5578;DHT22;2811;51.900;10.734;2022-09-28T07:51:05;9.40;99.90
5578;DHT22;2811;51.900;10.734;2022-09-28T07:53:32;9.40;99.90
5578;DHT22;2811;51.900;10.734;2022-09-28T07:56:01;9.30;99.90
5578;DHT22;2811;51.900;10.734;2022-09-28T07:58:31;9.40;99.90
5578;DHT22;2811;51.900;10.734;2022-09-28T08:01:01;9.40;99.90
5578;DHT22;2811;51.900;10.734;2022-09-28T08:03:28;9.50;99.90
5578;DHT22;2811;51.900;10.734;2022-09-28T08:05:58;9.50;99.90
5578;DHT22;2811;51.900;10.734;2022-09-28T08:08:25;9.50;99.90
5578;DHT22;2811;51.900;10.734;2022-09-28T08:10:54;9.50;99.90
5578;DHT22;2811;51.900;10.734;2022-09-28T08:13:22;9.40;99.90
5578;DHT22;2811;51.900;10.734;2022-09-28T08:15:50;9.60;99.90
5578;DHT22;2811;51.900;10.734;2022-09-28T08:18:17;9.70;99.90
5578;DHT22;2811;51.900;10.734;2022-09-28T08:20:44;9.80;99.90
5578;DHT22;2811;51.900;10.734;2022-09-28T08:23:30;9.90;99.90
5578;DHT22;2811;51.900;10.734;2022-09-28T08:25:57;10.00;99.90
5578;DHT22;2811;51.900;10.734;2022-09-28T08:28:24;10.10;99.90
5578;DHT22;2811;51.900;10.734;2022-09-28T08:30:51;10.10;99.90
5578;DHT22;2811;51.900;10.734;2022-09-28T08:33:19;10.20;99.90
5578;DHT22;2811;51.900;10.734;2022-09-28T08:35:46;10.20;99.90
5578;DHT22;2811;51.900;10.734;2022-09-28T08:38:13;10.10;99.90
5578;DHT22;2811;51.900;10.734;2022-09-28T08:40:49;10.20;99.90
5578;DHT22;2811;51.900;10.734;2022-09-28T08:43:39;10.20;99.90
5578;DHT22;2811;51.900;10.734;2022-09-28T08:46:08;10.20;99.90
5578;DHT22;2811;51.900;10.734;2022-09-28T08:48:43;10.20;99.90
5578;DHT22;2811;51.900;10.734;2022-09-28T08:51:16;10.30;99.90
5578;DHT22;2811;51.900;10.734;2022-09-28T08:53:49;10.40;99.90
5578;DHT22;2811;51.900;10.734;2022-09-28T08:56:26;10.40;99.90
5578;DHT22;2811;51.900;10.734;2022-09-28T08:58:57;10.20;99.90
5578;DHT22;2811;51.900;10.734;2022-09-28T09:01:30;10.10;99.90
5578;DHT22;2811;51.900;10.734;2022-09-28T09:03:57;10.10;99.90
5578;DHT22;2811;51.900;10.734;2022-09-28T09:06:30;10.20;99.90
5578;DHT22;2811;51.900;10.734;2022-09-28T09:09:06;10.30;99.90
5578;DHT22;2811;51.900;10.734;2022-09-28T09:11:51;10.40;99.90
5578;DHT22;2811;51.900;10.734;2022-09-28T09:14:50;10.60;99.90
5578;DHT22;2811;51.900;10.734;2022-09-28T09:17:28;10.80;99.90
5578;DHT22;2811;51.900;10.734;2022-09-28T09:20:03;10.90;99.90
5578;DHT22;2811;51.900;10.734;2022-09-28T09:22:38;10.80;99.90
5578;DHT22;2811;51.900;10.734;2022-09-28T09:25:16;10.80;99.90
5578;DHT22;2811;51.900;10.734;2022-09-28T09:28:00;10.80;99.90
5578;DHT22;2811;51.900;10.734;2022-09-28T09:30:37;10.80;99.90
5578;DHT22;2811;51.900;10.734;2022-09-28T09:33:22;11.00;99.90
5578;DHT22;2811;51.900;10.734;2022-09-28T09:36:04;11.10;99.90
5578;DHT22;2811;51.900;10.734;2022-09-28T09:38:52;11.10;99.90
5578;DHT22;2811;51.900;10.734;2022-09-28T09:41:32;11.00;99.90
5578;DHT22;2811;51.900;10.734;2022-09-28T09:44:18;11.00;99.90
5578;DHT22;2811;51.900;10.734;2022-09-28T09:46:51;11.10;99.90
5578;DHT22;2811;51.900;10.734;2022-09-28T09:49:23;11.40;99.90
5578;DHT22;2811;51.900;10.734;2022-09-28T09:51:54;11.30;99.90
5578;DHT22;2811;51.900;10.734;2022-09-28T09:54:26;11.50;99.90
5578;DHT22;2811;51.900;10.734;2022-09-28T09:56:58;11.50;99.90
5578;DHT22;2811;51.900;10.734;2022-09-28T09:59:32;11.40;99.90
5578;DHT22;2811;51.900;10.734;2022-09-28T10:02:06;11.20;99.90
5578;DHT22;2811;51.900;10.734;2022-09-28T10:04:36;11.20;99.90
5578;DHT22;2811;51.900;10.734;2022-09-28T10:07:08;11.10;99.90
5578;DHT22;2811;51.900;10.734;2022-09-28T10:09:41;11.10;99.90
5578;DHT22;2811;51.900;10.734;2022-09-28T10:12:13;11.00;99.90
5578;DHT22;2811;51.900;10.734;2022-09-28T10:14:42;10.90;99.90
5578;DHT22;2811;51.900;10.734;2022-09-28T10:17:11;10.70;99.90
5578;DHT22;2811;51.900;10.734;2022-09-28T10:19:39;10.70;99.90
5578;DHT22;2811;51.900;10.734;2022-09-28T10:22:05;10.60;99.90
5578;DHT22;2811;51.900;10.734;2022-09-28T10:24:34;10.70;99.90
5578;DHT22;2811;51.900;10.734;2022-09-28T10:27:06;10.80;99.90
5578;DHT22;2811;51.900;10.734;2022-09-28T10:29:40;10.90;99.90
5578;DHT22;2811;51.900;10.734;2022-09-28T10:32:21;11.20;99.90
5578;DHT22;2811;51.900;10.734;2022-09-28T10:34:50;11.30;99.90
5578;DHT22;2811;51.900;10.734;2022-09-28T10:37:17;11.50;99.90
5578;DHT22;2811;51.900;10.734;2022-09-28T10:39:48;11.60;99.90
5578;DHT22;2811;51.900;10.734;2022-09-28T10:42:22;11.80;99.90
5578;DHT22;2811;51.900;10.734;2022-09-28T10:44:54;12.20;99.90
5578;DHT22;2811;51.900;10.734;2022-09-28T10:47:24;12.30;99.90
5578;DHT22;2811;51.900;10.734;2022-09-28T10:49:52;12.50;99.90
5578;DHT22;2811;51.900;10.734;2022-09-28T10:52:38;12.60;99.90
5578;DHT22;2811;51.900;10.734;2022-09-28T10:55:25;12.50;99.90
5578;DHT22;2811;51.900;10.734;2022-09-28T10:57:53;12.30;99.90
5578;DHT22;2811;51.900;10.734;2022-09-28T11:00:32;12.40;99.90
5578;DHT22;2811;51.900;10.734;2022-09-28T11:03:01;12.20;99.90
5578;DHT22;2811;51.900;10.734;2022-09-28T11:05:28;12.10;99.90
5578;DHT22;2811;51.900;10.734;2022-09-28T11:07:56;11.70;99.90
5578;DHT22;2811;51.900;10.734;2022-09-28T11:10:26;11.90;99.90
5578;DHT22;2811;51.900;10.734;2022-09-28T11:12:54;11.80;99.90
5578;DHT22;2811;51.900;10.734;2022-09-28T11:15:25;11.80;99.90
5578;DHT22;2811;51.900;10.734;2022-09-28T11:17:52;11.70;99.90
5578;DHT22;2811;51.900;10.734;2022-09-28T11:20:29;11.80;99.90
5578;DHT22;2811;51.900;10.734;2022-09-28T11:22:57;11.80;99.90
5578;DHT22;2811;51.900;10.734;2022-09-28T11:25:25;11.60;99.90
5578;DHT22;2811;51.900;10.734;2022-09-28T11:27:58;11.50;99.90
5578;DHT22;2811;51.900;10.734;2022-09-28T11:30:28;11.30;99.90
5578;DHT22;2811;51.900;10.734;2022-09-28T11:33:01;11.30;99.90
5578;DHT22;2811;51.900;10.734;2022-09-28T11:35:40;11.20;99.90
5578;DHT22;2811;51.900;10.734;2022-09-28T11:38:21;11.20;99.90
5578;DHT22;2811;51.900;10.734;2022-09-28T11:40:56;11.20;99.90
5578;DHT22;2811;51.900;10.734;2022-09-28T11:43:43;11.20;99.90
5578;DHT22;2811;51.900;10.734;2022-09-28T11:46:20;11.30;99.90
5578;DHT22;2811;51.900;10.734;2022-09-28T11:48:55;11.40;99.90
5578;DHT22;2811;51.900;10.734;2022-09-28T11:51:28;11.50;99.90
5578;DHT22;2811;51.900;10.734;2022-09-28T11:53:58;11.50;99.90
5578;DHT22;2811;51.900;10.734;2022-09-28T11:56:33;11.60;99.90
5578;DHT22;2811;51.900;10.734;2022-09-28T11:59:05;11.70;99.90
5578;DHT22;2811;51.900;10.734;2022-09-28T12:01:39;11.80;99.90
5578;DHT22;2811;51.900;10.734;2022-09-28T12:04:11;12.00;99.90
5578;DHT22;2811;51.900;10.734;2022-09-28T12:06:45;12.00;99.90
5578;DHT22;2811;51.900;10.734;2022-09-28T12:09:19;12.30;99.90
5578;DHT22;2811;51.900;10.734;2022-09-28T12:11:49;12.30;99.90
5578;DHT22;2811;51.900;10.734;2022-09-28T12:14:22;12.40;99.90
5578;DHT22;2811;51.900;10.734;2022-09-28T12:16:53;12.50;99.90
5578;DHT22;2811;51.900;10.734;2022-09-28T12:19:26;12.60;99.90
5578;DHT22;2811;51.900;10.734;2022-09-28T12:22:00;12.50;99.90
5578;DHT22;2811;51.900;10.734;2022-09-28T12:24:30;12.50;99.90
5578;DHT22;2811;51.900;10.734;2022-09-28T12:27:03;12.50;99.90
5578;DHT22;2811;51.900;10.734;2022-09-28T12:29:36;12.50;99.90
5578;DHT22;2811;51.900;10.734;2022-09-28T12:32:11;12.40;99.90
5578;DHT22;2811;51.900;10.734;2022-09-28T12:34:42;12.40;99.90
5578;DHT22;2811;51.900;10.734;2022-09-28T12:37:25;12.40;99.90
5578;DHT22;2811;51.900;10.734;2022-09-28T12:43:01;12.40;99.90
5578;DHT22;2811;51.900;10.734;2022-09-28T12:45:47;12.40;99.90
5578;DHT22;2811;51.900;10.734;2022-09-28T12:48:43;12.60;99.90
5578;DHT22;2811;51.900;10.734;2022-09-28T12:51:17;12.80;99.90
5578;DHT22;2811;51.900;10.734;2022-09-28T12:54:01;13.00;99.90
5578;DHT22;2811;51.900;10.734;2022-09-28T12:56:39;13.10;99.90
5578;DHT22;2811;51.900;10.734;2022-09-28T12:59:17;13.10;99.90
5578;DHT22;2811;51.900;10.734;2022-09-28T13:05:06;12.80;99.90
5578;DHT22;2811;51.900;10.734;2022-09-28T13:07:43;12.90;99.90
5578;DHT22;2811;51.900;10.734;2022-09-28T13:10:19;13.20;99.90
5578;DHT22;2811;51.900;10.734;2022-09-28T13:13:05;13.60;99.90
5578;DHT22;2811;51.900;10.734;2022-09-28T13:15:42;13.70;99.90
5578;DHT22;2811;51.900;10.734;2022-09-28T13:18:16;13.80;99.90
5578;DHT22;2811;51.900;10.734;2022-09-28T13:21:01;13.90;99.90
5578;DHT22;2811;51.900;10.734;2022-09-28T13:23:33;14.30;99.90
5578;DHT22;2811;51.900;10.734;2022-09-28T13:26:18;14.30;99.90
5578;DHT22;2811;51.900;10.734;2022-09-28T13:28:48;14.20;99.90
5578;DHT22;2811;51.900;10.734;2022-09-28T13:31:18;14.20;99.90
5578;DHT22;2811;51.900;10.734;2022-09-28T13:33:46;14.40;99.90
5578;DHT22;2811;51.900;10.734;2022-09-28T13:36:37;14.50;99.90
5578;DHT22;2811;51.900;10.734;2022-09-28T13:39:36;14.20;99.90
5578;DHT22;2811;51.900;10.734;2022-09-28T13:42:05;13.90;99.90
5578;DHT22;2811;51.900;10.734;2022-09-28T13:45:02;13.20;99.90
5578;DHT22;2811;51.900;10.734;2022-09-28T13:47:54;12.80;99.90
5578;DHT22;2811;51.900;10.734;2022-09-28T13:50:30;12.70;99.90
5578;DHT22;2811;51.900;10.734;2022-09-28T13:53:10;12.50;99.90
5578;DHT22;2811;51.900;10.734;2022-09-28T13:55:52;12.40;99.90
5578;DHT22;2811;51.900;10.734;2022-09-28T13:58:24;12.50;99.90
5578;DHT22;2811;51.900;10.734;2022-09-28T14:00:57;12.50;99.90
5578;DHT22;2811;51.900;10.734;2022-09-28T14:03:27;12.60;99.90
5578;DHT22;2811;51.900;10.734;2022-09-28T14:06:20;12.70;99.90
5578;DHT22;2811;51.900;10.734;2022-09-28T14:11:56;12.60;99.90
5578;DHT22;2811;51.900;10.734;2022-09-28T14:14:45;12.50;99.90
5578;DHT22;2811;51.900;10.734;2022-09-28T14:17:49;12.50;99.90
5578;DHT22;2811;51.900;10.734;2022-09-28T14:20:22;12.30;99.90
5578;DHT22;2811;51.900;10.734;2022-09-28T14:22:59;12.20;99.90
5578;DHT22;2811;51.900;10.734;2022-09-28T14:25:32;12.20;99.90
5578;DHT22;2811;51.900;10.734;2022-09-28T14:28:05;12.40;99.90
5578;DHT22;2811;51.900;10.734;2022-09-28T14:30:46;12.30;99.90
5578;DHT22;2811;51.900;10.734;2022-09-28T14:33:23;12.50;99.90
5578;DHT22;2811;51.900;10.734;2022-09-28T14:35:54;12.60;99.90
5578;DHT22;2811;51.900;10.734;2022-09-28T14:38:24;12.60;99.90
5578;DHT22;2811;51.900;10.734;2022-09-28T14:41:23;12.80;99.90
5578;DHT22;2811;51.900;10.734;2022-09-28T14:44:06;12.60;99.90
5578;DHT22;2811;51.900;10.734;2022-09-28T14:46:38;12.40;99.90
5578;DHT22;2811;51.900;10.734;2022-09-28T14:49:44;12.20;99.90
5578;DHT22;2811;51.900;10.734;2022-09-28T14:52:18;12.30;99.90
5578;DHT22;2811;51.900;10.734;2022-09-28T14:55:02;12.40;99.90
5578;DHT22;2811;51.900;10.734;2022-09-28T14:57:40;12.30;99.90
5578;DHT22;2811;51.900;10.734;2022-09-28T15:00:14;12.20;99.90
5578;DHT22;2811;51.900;10.734;2022-09-28T15:02:47;12.10;99.90
5578;DHT22;2811;51.900;10.734;2022-09-28T15:05:20;12.00;99.90
5578;DHT22;2811;51.900;10.734;2022-09-28T15:07:49;11.90;99.90
5578;DHT22;2811;51.900;10.734;2022-09-28T15:10:30;11.90;99.90
5578;DHT22;2811;51.900;10.734;2022-09-28T15:12:58;11.90;99.90
5578;DHT22;2811;51.900;10.734;2022-09-28T15:15:30;12.00;99.90
5578;DHT22;2811;51.900;10.734;2022-09-28T15:20:53;12.10;99.90
5578;DHT22;2811;51.900;10.734;2022-09-28T15:23:26;12.20;99.90
5578;DHT22;2811;51.900;10.734;2022-09-28T15:25:58;12.30;99.90
5578;DHT22;2811;51.900;10.734;2022-09-28T15:28:25;12.20;99.90
5578;DHT22;2811;51.900;10.734;2022-09-28T15:30:59;12.10;99.90
5578;DHT22;2811;51.900;10.734;2022-09-28T15:33:28;12.00;99.90
5578;DHT22;2811;51.900;10.734;2022-09-28T15:36:17;11.90;99.90
5578;DHT22;2811;51.900;10.734;2022-09-28T15:38:52;11.90;99.90
5578;DHT22;2811;51.900;10.734;2022-09-28T15:41:22;11.90;99.90
5578;DHT22;2811;51.900;10.734;2022-09-28T15:44:15;12.00;99.90
5578;DHT22;2811;51.900;10.734;2022-09-28T15:46:49;12.00;99.90
5578;DHT22;2811;51.900;10.734;2022-09-28T15:49:23;12.00;99.90
5578;DHT22;2811;51.900;10.734;2022-09-28T15:51:53;12.00;99.90
5578;DHT22;2811;51.900;10.734;2022-09-28T15:54:22;12.00;99.90
5578;DHT22;2811;51.900;10.734;2022-09-28T15:56:52;12.00;99.90
5578;DHT22;2811;51.900;10.734;2022-09-28T15:59:25;11.90;99.90
5578;DHT22;2811;51.900;10.734;2022-09-28T16:02:11;12.00;99.90
5578;DHT22;2811;51.900;10.734;2022-09-28T16:04:45;11.80;99.90
5578;DHT22;2811;51.900;10.734;2022-09-28T16:07:34;11.80;99.90
5578;DHT22;2811;51.900;10.734;2022-09-28T16:12:49;11.80;99.90
5578;DHT22;2811;51.900;10.734;2022-09-28T16:15:20;11.70;99.90
5578;DHT22;2811;51.900;10.734;2022-09-28T16:17:53;11.70;99.90
5578;DHT22;2811;51.900;10.734;2022-09-28T16:20:27;11.70;99.90
5578;DHT22;2811;51.900;10.734;2022-09-28T16:22:55;11.70;99.90
5578;DHT22;2811;51.900;10.734;2022-09-28T16:25:24;11.70;99.90
5578;DHT22;2811;51.900;10.734;2022-09-28T16:27:53;11.70;99.90
5578;DHT22;2811;51.900;10.734;2022-09-28T16:30:22;11.60;99.90
5578;DHT22;2811;51.900;10.734;2022-09-28T16:32:53;11.60;99.90
5578;DHT22;2811;51.900;10.734;2022-09-28T16:35:23;11.50;99.90
5578;DHT22;2811;51.900;10.734;2022-09-28T16:38:09;11.30;99.90
5578;DHT22;2811;51.900;10.734;2022-09-28T16:40:40;11.30;99.90
5578;DHT22;2811;51.900;10.734;2022-09-28T16:43:13;11.30;99.90